Time;durP1;ratioP1;P1;durP2;ratioP2;P2;SDS_P1;SDS_P2;PMS_P1;PMS_P2;Temp;Humidity;BMP_temperature;BMP_pressure;BME280_temperature;BME280_humidity;BME280_pressure;Samples;Min_cycle;Max_cycle;Signal;HPM_P1;HPM_P2
2022/05/06 00:00:22;;;;;;;9.40;5.30;;;;;;;-141.50;100.00;63355.56;5076305;28;20075;-78
2022/05/06 00:02:49;;;;;;;10.98;5.90;;;;;;;-141.50;100.00;63355.56;5087341;28;20465;-74
2022/05/06 00:05:15;;;;;;;10.25;5.53;;;;;;;-141.50;100.00;63355.56;5102546;28;20055;-76
2022/05/06 00:07:42;;;;;;;11.50;6.35;;;;;;;-141.50;100.00;63355.56;5076358;28;20067;-77
2022/05/06 00:10:09;;;;;;;9.95;5.32;;;;;;;-141.50;100.00;63355.56;5094161;28;20048;-77
2022/05/06 00:12:36;;;;;;;9.60;5.75;;;;;;;-141.50;100.00;63355.56;5096266;28;20128;-78
2022/05/06 00:15:06;;;;;;;13.88;5.80;;;;;;;-141.50;100.00;63355.56;5088594;28;20052;-75
2022/05/06 00:17:33;;;;;;;11.07;6.18;;;;;;;-141.50;100.00;63355.56;5100845;28;20093;-77
2022/05/06 00:20:00;;;;;;;13.52;5.15;;;;;;;-141.50;100.00;63355.56;5075084;28;20135;-77
2022/05/06 00:22:27;;;;;;;8.70;5.45;;;;;;;-141.50;100.00;63355.56;5096235;28;20052;-77
2022/05/06 00:24:53;;;;;;;8.90;5.22;;;;;;;-141.50;100.00;63355.56;5096859;28;20052;-76
2022/05/06 00:27:20;;;;;;;14.60;5.82;;;;;;;-141.50;100.00;63355.56;5075088;28;20400;-77
2022/05/06 00:29:46;;;;;;;9.95;5.53;;;;;;;-141.50;100.00;63355.56;5093594;28;20101;-77
2022/05/06 00:32:13;;;;;;;13.38;5.72;;;;;;;-141.50;100.00;63355.56;5092731;28;20302;-78
2022/05/06 00:34:39;;;;;;;11.77;5.65;;;;;;;-141.50;100.00;63355.56;5075475;28;20121;-78
2022/05/06 00:37:06;;;;;;;8.68;5.10;;;;;;;-141.50;100.00;63355.56;5093494;28;20093;-77
2022/05/06 00:39:32;;;;;;;11.52;5.53;;;;;;;-141.50;100.00;63355.56;5089735;28;20049;-77
2022/05/06 00:41:59;;;;;;;8.10;5.00;;;;;;;-141.50;100.00;63355.56;5055575;28;20102;-77
2022/05/06 00:44:26;;;;;;;8.85;5.45;;;;;;;-141.50;100.00;63355.56;5073852;28;20053;-77
2022/05/06 00:46:54;;;;;;;12.18;5.20;;;;;;;-141.50;100.00;63355.56;5055726;28;20091;-77
2022/05/06 00:49:22;;;;;;;8.65;5.05;;;;;;;-141.50;100.00;63355.56;5074971;28;20049;-78
2022/05/06 00:51:51;;;;;;;8.52;5.35;;;;;;;-141.50;100.00;63355.56;5074630;28;20083;-78
2022/05/06 00:54:21;;;;;;;12.02;5.78;;;;;;;-141.50;100.00;63355.56;5074761;28;20053;-79
2022/05/06 00:56:49;;;;;;;10.48;5.68;;;;;;;-141.50;100.00;63355.56;5074040;28;20135;-78
2022/05/06 00:59:16;;;;;;;8.75;5.28;;;;;;;-141.50;100.00;63355.56;5056288;28;20056;-79
2022/05/06 01:01:43;;;;;;;15.48;4.93;;;;;;;-141.50;100.00;63355.56;5074143;28;20052;-79
2022/05/06 01:04:10;;;;;;;8.25;4.78;;;;;;;-141.50;100.00;63355.56;5072921;28;20048;-77
2022/05/06 01:06:38;;;;;;;8.95;4.50;;;;;;;-141.50;100.00;63355.56;5077690;28;20062;-74
2022/05/06 01:09:05;;;;;;;7.07;4.70;;;;;;;-141.50;100.00;63355.56;5073975;28;20139;-75
2022/05/06 01:11:32;;;;;;;8.18;4.22;;;;;;;-141.50;100.00;63355.56;5061021;28;20500;-79
2022/05/06 01:13:59;;;;;;;9.57;4.22;;;;;;;-141.50;100.00;63355.56;5074096;28;20060;-79
2022/05/06 01:16:32;;;;;;;9.43;4.32;;;;;;;-141.50;100.00;63355.56;5072482;28;20459;-78
2022/05/06 01:18:59;;;;;;;12.13;4.43;;;;;;;-141.50;100.00;63355.56;5072682;28;20113;-77
2022/05/06 01:21:27;;;;;;;8.48;4.70;;;;;;;-141.50;100.00;63355.56;5073530;28;20110;-78
2022/05/06 01:23:54;;;;;;;8.05;4.90;;;;;;;-141.50;100.00;63355.56;5072598;28;20506;-77
2022/05/06 01:26:20;;;;;;;8.40;4.35;;;;;;;-141.50;100.00;63355.56;5056031;28;20132;-78
2022/05/06 01:28:49;;;;;;;13.55;5.75;;;;;;;-141.50;100.00;63355.56;5089921;28;20048;-75
2022/05/06 01:31:22;;;;;;;9.35;4.90;;;;;;;-141.50;100.00;63355.56;5090325;28;20044;-76
2022/05/06 01:33:54;;;;;;;9.65;4.57;;;;;;;-141.50;100.00;63355.56;5089179;28;20044;-76
2022/05/06 01:36:24;;;;;;;8.35;5.43;;;;;;;-141.50;100.00;63355.56;5071015;28;20053;-74
2022/05/06 01:38:54;;;;;;;8.57;4.60;;;;;;;-141.50;100.00;63355.56;5089149;28;20044;-73
2022/05/06 01:41:26;;;;;;;12.13;4.78;;;;;;;-141.50;100.00;63355.56;5072931;28;20117;-74
2022/05/06 01:43:59;;;;;;;10.35;4.97;;;;;;;-141.50;100.00;63355.56;5071677;28;20048;-76
2022/05/06 01:46:28;;;;;;;9.63;5.13;;;;;;;-141.50;100.00;63355.56;5071460;28;20113;-76
2022/05/06 01:48:56;;;;;;;11.23;5.68;;;;;;;-141.50;100.00;63355.56;5052190;28;20059;-77
2022/05/06 01:51:23;;;;;;;10.15;5.97;;;;;;;-141.50;100.00;63355.56;5070777;28;20052;-79
2022/05/06 01:53:50;;;;;;;9.43;5.53;;;;;;;-141.50;100.00;63355.56;5072340;28;20477;-77
2022/05/06 01:56:18;;;;;;;11.93;5.70;;;;;;;-141.50;100.00;63355.56;5056498;28;20297;-78
2022/05/06 01:58:46;;;;;;;9.75;5.28;;;;;;;-141.50;100.00;63355.56;5079979;28;20136;-74
2022/05/06 02:01:12;;;;;;;8.25;4.57;;;;;;;-141.50;100.00;63355.56;5070154;28;20040;-79
2022/05/06 02:06:25;;;;;;;8.90;4.80;;;;;;;-141.50;100.00;63355.56;5091721;28;20143;-79
2022/05/06 02:08:52;;;;;;;8.88;5.22;;;;;;;-141.50;100.00;63355.56;5091432;28;20157;-78
2022/05/06 02:11:18;;;;;;;15.65;5.20;;;;;;;-141.50;100.00;63355.56;5090541;28;20048;-78
2022/05/06 02:13:45;;;;;;;8.68;5.07;;;;;;;-141.50;100.00;63355.56;5071654;28;20048;-78
2022/05/06 02:16:12;;;;;;;11.82;5.30;;;;;;;-141.50;100.00;63355.56;5093990;28;20051;-79
2022/05/06 02:18:39;;;;;;;12.20;5.22;;;;;;;-141.50;100.00;63355.56;5089443;28;20052;-80
2022/05/06 02:21:05;;;;;;;10.00;5.32;;;;;;;-141.50;100.00;63355.56;5109509;28;20062;-73
2022/05/06 02:23:32;;;;;;;7.97;5.25;;;;;;;-141.50;100.00;63355.56;5107416;28;20055;-78
2022/05/06 02:25:58;;;;;;;15.57;5.50;;;;;;;-141.50;100.00;63355.56;5070665;28;20094;-79
2022/05/06 02:28:25;;;;;;;7.75;4.95;;;;;;;-141.50;100.00;63355.56;5089401;28;20235;-78
2022/05/06 02:33:37;;;;;;;9.07;5.88;;;;;;;-141.50;100.00;63355.56;5089263;28;20055;-79
2022/05/06 02:36:05;;;;;;;10.25;5.78;;;;;;;-141.50;100.00;63355.56;5090651;28;20044;-77
2022/05/06 02:38:32;;;;;;;12.25;6.20;;;;;;;-141.50;100.00;63355.56;5073920;28;20044;-78
2022/05/06 02:40:59;;;;;;;14.48;6.35;;;;;;;-141.50;100.00;63355.56;5064154;28;20048;-77
2022/05/06 02:43:26;;;;;;;14.88;6.15;;;;;;;-141.50;100.00;63355.56;5074966;28;20241;-78
2022/05/06 02:45:52;;;;;;;10.13;6.20;;;;;;;-141.50;100.00;63355.56;5074049;28;20053;-79
2022/05/06 02:48:19;;;;;;;9.80;5.90;;;;;;;-141.50;100.00;63355.56;5073481;28;20048;-77
2022/05/06 02:50:47;;;;;;;10.52;5.88;;;;;;;-141.50;100.00;63355.56;5068124;28;20044;-75
2022/05/06 02:53:13;;;;;;;8.05;5.60;;;;;;;-141.50;100.00;63355.56;5068066;28;20071;-77
2022/05/06 02:55:41;;;;;;;11.43;5.63;;;;;;;-141.50;100.00;63355.56;5078542;28;20082;-74
2022/05/06 02:58:09;;;;;;;12.25;6.05;;;;;;;-141.50;100.00;63355.56;5096727;28;20063;-74
2022/05/06 03:00:36;;;;;;;8.68;5.40;;;;;;;-141.50;100.00;63355.56;5096033;28;20033;-76
2022/05/06 03:03:04;;;;;;;11.35;5.85;;;;;;;-141.50;100.00;63355.56;5086029;28;20090;-78
2022/05/06 03:05:30;;;;;;;12.65;6.03;;;;;;;-141.50;100.00;63355.56;5056227;28;20052;-78
2022/05/06 03:07:57;;;;;;;11.55;6.00;;;;;;;-141.50;100.00;63355.56;5074133;28;20110;-78
2022/05/06 03:10:24;;;;;;;11.90;5.13;;;;;;;-141.50;100.00;63355.56;5073606;28;20056;-79
2022/05/06 03:12:55;;;;;;;8.20;5.47;;;;;;;-141.50;100.00;63355.56;5073238;28;20056;-77
2022/05/06 03:15:22;;;;;;;9.93;5.57;;;;;;;-141.50;100.00;63355.56;5056388;28;20048;-78
2022/05/06 03:17:48;;;;;;;11.15;5.72;;;;;;;-141.50;100.00;63355.56;5056872;28;20055;-77
2022/05/06 03:20:15;;;;;;;10.20;5.30;;;;;;;-141.50;100.00;63355.56;5060251;28;20114;-76
2022/05/06 03:22:46;;;;;;;12.52;5.30;;;;;;;-141.50;100.00;63355.56;5091287;28;20052;-77
2022/05/06 03:25:14;;;;;;;10.73;6.72;;;;;;;-141.50;100.00;63355.56;5072496;28;20049;-76
2022/05/06 03:30:26;;;;;;;11.45;6.63;;;;;;;-141.50;100.00;63355.56;5094439;28;20052;-78
2022/05/06 03:32:55;;;;;;;14.23;6.55;;;;;;;-141.50;100.00;63355.56;5075387;28;20081;-77
2022/05/06 03:35:23;;;;;;;16.85;6.90;;;;;;;-141.50;100.00;63355.56;5076235;28;20052;-78
2022/05/06 03:37:51;;;;;;;11.20;6.10;;;;;;;-141.50;100.00;63355.56;5095880;28;20060;-79
2022/05/06 03:40:18;;;;;;;11.52;6.20;;;;;;;-141.50;100.00;63355.56;5068197;28;20413;-77
2022/05/06 03:42:44;;;;;;;9.88;6.47;;;;;;;-141.50;100.00;63355.56;5078196;28;20048;-75
2022/05/06 03:45:11;;;;;;;12.75;6.53;;;;;;;-141.50;100.00;63355.56;5090420;28;20312;-78
2022/05/06 03:47:37;;;;;;;18.33;7.50;;;;;;;-141.50;100.00;63355.56;5081208;28;20049;-78
2022/05/06 03:52:50;;;;;;;13.07;6.72;;;;;;;-141.50;100.00;63355.56;5074832;28;20048;-77
2022/05/06 03:55:18;;;;;;;13.25;6.70;;;;;;;-141.50;100.00;63355.56;5058209;28;20056;-78
2022/05/06 03:57:45;;;;;;;12.15;6.60;;;;;;;-141.50;100.00;63355.56;5058619;28;20079;-78
2022/05/06 04:00:14;;;;;;;14.20;6.38;;;;;;;-141.50;100.00;63355.56;5056401;28;20056;-74
2022/05/06 04:02:41;;;;;;;15.27;6.85;;;;;;;-141.50;100.00;63355.56;5072869;28;20156;-78
2022/05/06 04:05:09;;;;;;;15.30;6.93;;;;;;;-141.50;100.00;63355.56;5074268;28;20156;-78
2022/05/06 04:07:35;;;;;;;10.40;6.50;;;;;;;-141.50;100.00;63355.56;5073906;28;20079;-78
2022/05/06 04:10:03;;;;;;;11.20;6.65;;;;;;;-141.50;100.00;63355.56;5073719;28;20060;-76
2022/05/06 04:12:30;;;;;;;16.40;6.93;;;;;;;-141.50;100.00;63355.56;5054994;28;20050;-78
2022/05/06 04:14:56;;;;;;;12.15;6.20;;;;;;;-141.50;100.00;63355.56;5073731;28;20489;-76
2022/05/06 04:17:23;;;;;;;11.13;6.03;;;;;;;-141.50;100.00;63355.56;5061687;28;20049;-79
2022/05/06 04:25:21;;;;;;;13.80;6.68;;;;;;;-141.50;100.00;63355.56;5093660;28;20051;-77
2022/05/06 04:27:48;;;;;;;16.65;7.18;;;;;;;-141.50;100.00;63355.56;5072258;28;20076;-77
2022/05/06 04:30:15;;;;;;;13.43;6.82;;;;;;;-141.50;100.00;63355.56;5092138;28;20104;-78
2022/05/06 04:32:41;;;;;;;11.25;6.15;;;;;;;-141.50;100.00;63355.56;5072689;28;20076;-78
2022/05/06 04:35:08;;;;;;;13.50;7.10;;;;;;;-141.50;100.00;63355.56;5092831;28;20051;-75
2022/05/06 04:37:36;;;;;;;21.17;6.90;;;;;;;-141.50;100.00;63355.56;5075384;28;20516;-78
2022/05/06 04:40:04;;;;;;;16.27;6.55;;;;;;;-141.50;100.00;63355.56;5085115;28;20082;-80
2022/05/06 04:42:30;;;;;;;17.55;7.32;;;;;;;-141.50;100.00;63355.56;5072991;28;20059;-79
2022/05/06 04:44:57;;;;;;;14.57;7.63;;;;;;;-141.50;100.00;63355.56;5073425;28;20056;-78
2022/05/06 04:47:24;;;;;;;15.23;7.10;;;;;;;-141.50;100.00;63355.56;5073016;28;20146;-77
2022/05/06 04:49:51;;;;;;;14.00;7.18;;;;;;;-141.50;100.00;63355.56;5072655;28;20454;-77
2022/05/06 04:52:18;;;;;;;11.40;6.95;;;;;;;-141.50;100.00;63355.56;5072723;28;20120;-77
2022/05/06 04:54:45;;;;;;;14.85;7.57;;;;;;;-141.50;100.00;63355.56;5071730;28;20083;-76
2022/05/06 04:57:11;;;;;;;17.20;7.40;;;;;;;-141.50;100.00;63355.56;5072354;28;20048;-76
2022/05/06 04:59:38;;;;;;;12.90;6.45;;;;;;;-141.50;100.00;63355.56;5066123;28;20047;-76
2022/05/06 05:02:05;;;;;;;11.60;6.47;;;;;;;-141.50;100.00;63355.56;5090764;28;20083;-80
2022/05/06 05:04:31;;;;;;;16.80;6.65;;;;;;;-141.50;100.00;63355.56;5073353;28;20059;-77
2022/05/06 05:06:58;;;;;;;15.57;6.90;;;;;;;-141.50;100.00;63355.56;5092623;28;20059;-78
2022/05/06 05:09:24;;;;;;;15.90;6.82;;;;;;;-141.50;100.00;63355.56;5093037;28;20419;-77
2022/05/06 05:11:51;;;;;;;15.25;7.28;;;;;;;-141.50;100.00;63355.56;5074383;28;20193;-78
2022/05/06 05:14:18;;;;;;;12.45;6.75;;;;;;;-141.50;100.00;63355.56;5074267;28;20155;-78
2022/05/06 05:16:45;;;;;;;12.68;6.63;;;;;;;-141.50;100.00;63355.56;5094932;28;20067;-76
2022/05/06 05:19:12;;;;;;;11.48;6.60;;;;;;;-141.50;100.00;63355.56;5103575;28;20064;-75
2022/05/06 05:21:38;;;;;;;12.20;5.78;;;;;;;-141.50;100.00;63355.56;5082887;28;20048;-75
2022/05/06 05:24:05;;;;;;;12.77;6.07;;;;;;;-141.50;100.00;63355.56;5095156;28;20080;-79
2022/05/06 05:26:32;;;;;;;10.80;6.00;;;;;;;-141.50;100.00;63355.56;5091370;28;20079;-76
2022/05/06 05:28:58;;;;;;;13.45;5.65;;;;;;;-141.50;100.00;63355.56;5101249;28;20044;-75
2022/05/06 05:31:24;;;;;;;9.30;5.57;;;;;;;-141.50;100.00;63355.56;5089256;28;20094;-78
2022/05/06 05:33:54;;;;;;;16.98;6.30;;;;;;;-141.50;100.00;63355.56;5099666;28;20056;-74
2022/05/06 05:36:21;;;;;;;12.80;5.65;;;;;;;-141.50;100.00;63355.56;5107335;28;20059;-74
2022/05/06 05:38:47;;;;;;;11.73;5.88;;;;;;;-141.50;100.00;63355.56;5103708;28;20498;-75
2022/05/06 05:41:14;;;;;;;11.18;5.50;;;;;;;-141.50;100.00;63355.56;5087814;28;20087;-77
2022/05/06 05:49:10;;;;;;;10.95;5.80;;;;;;;-141.50;100.00;63355.56;5083684;28;20052;-75
2022/05/06 05:51:37;;;;;;;12.88;5.28;;;;;;;-141.50;100.00;63355.56;5079780;28;20547;-74
2022/05/06 05:54:04;;;;;;;9.02;5.10;;;;;;;-141.50;100.00;63355.56;5064120;28;20051;-78
2022/05/06 05:56:30;;;;;;;10.90;5.47;;;;;;;-141.50;100.00;63355.56;5089795;28;20607;-78
2022/05/06 05:58:57;;;;;;;11.50;5.43;;;;;;;-141.50;100.00;63355.56;5071697;28;20102;-76
2022/05/06 06:01:24;;;;;;;10.48;5.18;;;;;;;-141.50;100.00;63355.56;5076211;28;20048;-77
2022/05/06 06:03:50;;;;;;;11.13;6.00;;;;;;;-141.50;100.00;63355.56;5076115;28;20086;-77
2022/05/06 06:06:17;;;;;;;12.93;5.78;;;;;;;-141.50;100.00;63355.56;5081319;28;20067;-76
2022/05/06 06:08:43;;;;;;;15.40;5.75;;;;;;;-141.50;100.00;63355.56;5068962;28;20135;-76
2022/05/06 06:11:10;;;;;;;11.23;6.00;;;;;;;-141.50;100.00;63355.56;5078508;28;20052;-76
2022/05/06 06:13:37;;;;;;;14.15;6.18;;;;;;;-141.50;100.00;63355.56;5073366;28;20055;-77
2022/05/06 06:16:04;;;;;;;13.45;6.55;;;;;;;-141.50;100.00;63355.56;5073887;28;20071;-76
2022/05/06 06:18:31;;;;;;;20.75;6.72;;;;;;;-141.50;100.00;63355.56;5091212;28;20330;-79
2022/05/06 06:21:00;;;;;;;14.75;5.97;;;;;;;-141.50;100.00;63355.56;5090954;28;20455;-76
2022/05/06 06:23:30;;;;;;;13.30;5.88;;;;;;;-141.50;100.00;63355.56;5091353;28;20535;-78
2022/05/06 06:25:57;;;;;;;12.85;6.13;;;;;;;-141.50;100.00;63355.56;5091604;28;20048;-76
2022/05/06 06:28:24;;;;;;;15.43;6.10;;;;;;;-141.50;100.00;63355.56;5073464;28;20102;-75
2022/05/06 06:30:50;;;;;;;13.25;6.13;;;;;;;-141.50;100.00;63355.56;5090976;28;20080;-77
2022/05/06 06:33:17;;;;;;;12.82;6.13;;;;;;;-141.50;100.00;63355.56;5074432;28;20055;-78
2022/05/06 06:35:43;;;;;;;19.30;6.53;;;;;;;-141.50;100.00;63355.56;5083895;28;20112;-76
2022/05/06 06:38:10;;;;;;;10.75;5.90;;;;;;;-141.50;100.00;63355.56;5076817;28;20090;-73
2022/05/06 06:40:37;;;;;;;14.23;6.45;;;;;;;-141.50;100.00;63355.56;5098177;28;20493;-74
2022/05/06 06:43:04;;;;;;;17.63;5.75;;;;;;;-141.50;100.00;63355.56;5096103;28;20084;-78
2022/05/06 06:45:31;;;;;;;17.35;5.85;;;;;;;-141.50;100.00;63355.56;5073903;28;20044;-79
2022/05/06 06:47:58;;;;;;;18.83;6.05;;;;;;;-141.50;100.00;63355.56;5091238;28;20044;-77
2022/05/06 06:50:25;;;;;;;13.23;6.65;;;;;;;-141.50;100.00;63355.56;5090397;28;20048;-79
2022/05/06 06:52:53;;;;;;;14.05;5.95;;;;;;;-141.50;100.00;63355.56;5090933;28;20071;-78
2022/05/06 06:55:20;;;;;;;18.33;6.07;;;;;;;-141.50;100.00;63355.56;5073866;28;20055;-77
2022/05/06 06:57:46;;;;;;;18.25;6.30;;;;;;;-141.50;100.00;63355.56;5091599;28;20262;-79
2022/05/06 07:00:13;;;;;;;17.48;5.97;;;;;;;-141.50;100.00;63355.56;5073605;28;20112;-77
2022/05/06 07:02:40;;;;;;;11.32;5.80;;;;;;;-141.50;100.00;63355.56;5073282;28;20538;-78
2022/05/06 07:05:07;;;;;;;16.20;7.00;;;;;;;-141.50;100.00;63355.56;5073261;28;20071;-77
2022/05/06 07:13:24;;;;;;;11.48;6.68;;;;;;;-141.50;100.00;63355.56;5074507;28;20052;-76
2022/05/06 07:15:51;;;;;;;12.95;6.63;;;;;;;-141.50;100.00;63355.56;5051415;28;20076;-78
2022/05/06 07:18:18;;;;;;;10.82;6.22;;;;;;;-141.50;100.00;63355.56;5072100;28;20052;-74
2022/05/06 07:20:44;;;;;;;10.20;6.50;;;;;;;-141.50;100.00;63355.56;5073414;28;20052;-74
2022/05/06 07:23:11;;;;;;;13.90;7.22;;;;;;;-141.50;100.00;63355.56;5089672;28;20048;-80
2022/05/06 07:25:37;;;;;;;19.08;7.25;;;;;;;-141.50;100.00;63355.56;5079449;28;20049;-78
2022/05/06 07:28:04;;;;;;;12.07;7.32;;;;;;;-141.50;100.00;63355.56;5073009;28;20106;-79
2022/05/06 07:30:31;;;;;;;11.55;6.40;;;;;;;-141.50;100.00;63355.56;5056875;28;20045;-78
2022/05/06 07:32:58;;;;;;;15.23;6.93;;;;;;;-141.50;100.00;63355.56;5075129;28;20048;-79
2022/05/06 07:35:25;;;;;;;11.45;6.63;;;;;;;-141.50;100.00;63355.56;5056729;28;20110;-78
2022/05/06 07:37:52;;;;;;;11.73;6.30;;;;;;;-141.50;100.00;63355.56;5056939;28;20211;-78
2022/05/06 07:40:18;;;;;;;10.88;5.55;;;;;;;-141.50;100.00;63355.56;5056989;28;20052;-77
2022/05/06 07:42:47;;;;;;;14.45;5.97;;;;;;;-141.50;100.00;63355.56;5056983;28;20412;-79
2022/05/06 07:45:13;;;;;;;14.88;6.60;;;;;;;-141.50;100.00;63355.56;5075332;28;20045;-78
2022/05/06 07:47:40;;;;;;;14.30;6.18;;;;;;;-141.50;100.00;63355.56;5065046;28;20068;-75
2022/05/06 07:50:26;;;;;;;14.65;6.00;;;;;;;-141.50;100.00;63355.56;5087895;28;20048;-73
2022/05/06 07:52:53;;;;;;;15.10;6.25;;;;;;;-141.50;100.00;63355.56;5090112;28;20083;-73
2022/05/06 07:55:19;;;;;;;12.15;5.43;;;;;;;-141.50;100.00;63355.56;5091702;28;20046;-76
2022/05/06 07:57:46;;;;;;;11.98;5.57;;;;;;;-141.50;100.00;63355.56;5087827;28;20079;-75
2022/05/06 08:00:13;;;;;;;10.95;5.88;;;;;;;-141.50;100.00;63355.56;5088347;28;20048;-75
2022/05/06 08:05:37;;;;;;;12.50;6.00;;;;;;;-141.50;100.00;63355.56;5031602;28;20066;-74
2022/05/06 08:08:04;;;;;;;17.25;6.68;;;;;;;-141.50;100.00;63355.56;5105022;28;20056;-76
2022/05/06 08:10:31;;;;;;;13.82;5.47;;;;;;;-141.50;100.00;63355.56;5094353;28;20097;-76
2022/05/06 08:12:57;;;;;;;12.50;5.25;;;;;;;-141.50;100.00;63355.56;5093102;28;20463;-77
2022/05/06 08:15:24;;;;;;;8.65;4.95;;;;;;;-141.50;100.00;63355.56;5084495;28;20048;-79
2022/05/06 08:17:51;;;;;;;12.52;4.82;;;;;;;-141.50;100.00;63355.56;5072145;28;20071;-75
2022/05/06 08:20:18;;;;;;;11.70;5.18;;;;;;;-141.50;100.00;63355.56;5072267;28;20165;-80
2022/05/06 08:22:45;;;;;;;13.00;6.20;;;;;;;-141.50;100.00;63355.56;5072537;28;20596;-80
2022/05/06 08:25:11;;;;;;;14.25;5.60;;;;;;;-141.50;100.00;63355.56;5056054;28;20048;-78
2022/05/06 08:27:55;;;;;;;14.52;6.35;;;;;;;-141.50;100.00;63355.56;5074412;28;20474;-77
2022/05/06 08:30:21;;;;;;;14.90;5.50;;;;;;;-141.50;100.00;63355.56;5074669;28;20068;-79
2022/05/06 08:32:48;;;;;;;13.35;5.40;;;;;;;-141.50;100.00;63355.56;5074025;28;20053;-78
2022/05/06 08:35:15;;;;;;;11.50;5.80;;;;;;;-141.50;100.00;63355.56;5073477;28;20044;-77
2022/05/06 08:37:47;;;;;;;17.50;5.50;;;;;;;-141.50;100.00;63355.56;5074107;28;20055;-77
2022/05/06 08:40:18;;;;;;;15.48;5.47;;;;;;;-141.50;100.00;63355.56;5067021;28;20059;-75
2022/05/06 08:42:46;;;;;;;13.85;5.70;;;;;;;-141.50;100.00;63355.56;5061237;28;20212;-78
2022/05/06 08:50:53;;;;;;;11.90;5.13;;;;;;;-141.50;100.00;63355.56;5093217;28;20302;-79
2022/05/06 08:53:28;;;;;;;13.55;5.55;;;;;;;-141.50;100.00;63355.56;5075829;28;20496;-79
2022/05/06 08:55:56;;;;;;;;;;;;;;;-141.50;100.00;63355.56;5075932;28;20052;-78
2022/05/06 08:58:24;;;;;;;13.52;5.60;;;;;;;-141.50;100.00;63355.56;5105266;28;19977;-75
2022/05/06 09:01:03;;;;;;;8.75;5.03;;;;;;;-141.50;100.00;63355.56;5079083;28;20088;-77
2022/05/06 09:03:30;;;;;;;15.35;5.18;;;;;;;-141.50;100.00;63355.56;5075109;28;20059;-76
2022/05/06 09:05:58;;;;;;;12.57;5.40;;;;;;;-141.50;100.00;63355.56;5093528;28;20082;-78
2022/05/06 09:08:53;;;;;;;11.00;4.43;;;;;;;-141.50;100.00;63355.56;5092581;28;20101;-77
2022/05/06 09:14:15;;;;;;;7.60;3.53;;;;;;;-141.50;100.00;63355.56;5091502;28;20094;-77
2022/05/06 09:16:42;;;;;;;8.55;3.03;;;;;;;-141.50;100.00;63355.56;5074817;28;20048;-76
2022/05/06 09:19:27;;;;;;;20.55;4.30;;;;;;;-141.50;100.00;63355.56;5074165;28;20067;-78
2022/05/06 09:22:26;;;;;;;10.23;4.18;;;;;;;-141.50;100.00;63355.56;5093096;28;20470;-79
2022/05/06 09:24:53;;;;;;;8.55;4.32;;;;;;;-141.50;100.00;63355.56;5074785;28;20114;-76
2022/05/06 09:27:21;;;;;;;9.65;3.30;;;;;;;-141.50;100.00;63355.56;5093137;28;20071;-78
2022/05/06 09:29:47;;;;;;;8.95;3.40;;;;;;;-141.50;100.00;63355.56;5095819;28;20032;-75
2022/05/06 09:32:29;;;;;;;9.52;3.40;;;;;;;-141.50;100.00;63355.56;5075028;28;20063;-78
2022/05/06 09:34:56;;;;;;;10.23;3.35;;;;;;;-141.50;100.00;63355.56;5091323;28;20080;-77
2022/05/06 09:37:36;;;;;;;10.38;4.03;;;;;;;-141.50;100.00;63355.56;5092763;28;20052;-79
2022/05/06 09:40:07;;;;;;;8.23;3.55;;;;;;;-141.50;100.00;63355.56;5085193;28;20063;-79
2022/05/06 09:42:42;;;;;;;8.52;3.50;;;;;;;-141.50;100.00;63355.56;5053580;28;20421;-80
2022/05/06 09:45:11;;;;;;;12.65;3.17;;;;;;;-141.50;100.00;63355.56;5053112;28;20044;-79
2022/05/06 09:47:38;;;;;;;7.05;3.35;;;;;;;-141.50;100.00;63355.56;5070400;28;20076;-78
2022/05/06 09:50:07;;;;;;;12.52;3.65;;;;;;;-141.50;100.00;63355.56;5063490;28;20119;-77
2022/05/06 09:52:35;;;;;;;6.05;3.17;;;;;;;-141.50;100.00;63355.56;5103195;28;20044;-75
2022/05/06 09:55:03;;;;;;;13.00;4.10;;;;;;;-141.50;100.00;63355.56;5104310;28;20044;-75
2022/05/06 09:57:31;;;;;;;9.00;3.80;;;;;;;-141.50;100.00;63355.56;5083633;28;20047;-76
2022/05/06 09:59:57;;;;;;;10.13;3.42;;;;;;;-141.50;100.00;63355.56;5101308;28;20055;-75
2022/05/06 10:02:24;;;;;;;7.95;3.92;;;;;;;-141.50;100.00;63355.56;5083882;28;20056;-74
2022/05/06 10:04:50;;;;;;;7.90;3.80;;;;;;;-141.50;100.00;63355.56;5098445;28;20055;-74
2022/05/06 10:07:19;;;;;;;9.15;4.00;;;;;;;-141.50;100.00;63355.56;5089302;28;20056;-75
2022/05/06 10:09:52;;;;;;;7.40;3.28;;;;;;;-141.50;100.00;63355.56;5060622;28;20047;-77
2022/05/06 10:12:20;;;;;;;9.77;3.63;;;;;;;-141.50;100.00;63355.56;5070657;28;20080;-80
2022/05/06 10:14:47;;;;;;;6.97;3.95;;;;;;;-141.50;100.00;63355.56;5076783;28;20397;-76
2022/05/06 10:17:53;;;;;;;10.65;4.28;;;;;;;-141.50;100.00;63355.56;5052121;28;20052;-77
2022/05/06 10:20:43;;;;;;;8.45;4.30;;;;;;;-141.50;100.00;63355.56;5076329;28;20044;-77
2022/05/06 10:23:11;;;;;;;10.25;3.78;;;;;;;-141.50;100.00;63355.56;5068862;28;20134;-77
2022/05/06 10:25:42;;;;;;;7.80;3.55;;;;;;;-141.50;100.00;63355.56;5087104;28;20135;-77
2022/05/06 10:34:07;;;;;;;7.97;3.60;;;;;;;-141.50;100.00;63355.56;5067046;28;20076;-77
2022/05/06 10:36:43;;;;;;;9.93;3.20;;;;;;;-141.50;100.00;63355.56;5066801;28;20064;-79
2022/05/06 10:39:22;;;;;;;16.55;6.78;;;;;;;-141.50;100.00;63355.56;5066872;28;20127;-78
2022/05/06 10:42:08;;;;;;;10.60;4.55;;;;;;;-141.50;100.00;63355.56;5049037;28;20471;-75
2022/05/06 10:44:41;;;;;;;5.40;3.25;;;;;;;-141.50;100.00;63355.56;5054487;28;20057;-76
2022/05/06 10:47:11;;;;;;;11.93;3.67;;;;;;;-141.50;100.00;63355.56;5073467;28;20061;-79
2022/05/06 10:49:41;;;;;;;12.35;3.75;;;;;;;-141.50;100.00;63355.56;5067348;28;20072;-78
2022/05/06 10:52:17;;;;;;;8.13;3.80;;;;;;;-141.50;100.00;63355.56;5067544;28;20087;-77
2022/05/06 10:54:48;;;;;;;7.60;3.85;;;;;;;-141.50;100.00;63355.56;5065278;28;20049;-79
2022/05/06 10:57:16;;;;;;;9.18;3.70;;;;;;;-141.50;100.00;63355.56;5066191;28;20057;-78
2022/05/06 10:59:57;;;;;;;8.60;3.53;;;;;;;-141.50;100.00;63355.56;5050863;28;20496;-78
2022/05/06 11:02:27;;;;;;;6.22;2.97;;;;;;;-141.50;100.00;63355.56;5072102;28;20056;-76
2022/05/06 11:04:56;;;;;;;7.97;3.00;;;;;;;-141.50;100.00;63355.56;5075099;28;20284;-74
2022/05/06 11:07:24;;;;;;;6.50;2.80;;;;;;;-141.50;100.00;63355.56;5090426;28;20075;-77
2022/05/06 11:09:51;;;;;;;5.45;2.45;;;;;;;-141.50;100.00;63355.56;5073471;28;20049;-77
2022/05/06 11:12:29;;;;;;;7.47;2.78;;;;;;;-141.50;100.00;63355.56;5068922;28;20084;-77
2022/05/06 11:14:57;;;;;;;8.50;3.20;;;;;;;-141.50;100.00;63355.56;5078287;28;20052;-74
2022/05/06 11:17:25;;;;;;;7.03;2.72;;;;;;;-141.50;100.00;63355.56;5052996;28;20098;-77
2022/05/06 11:19:52;;;;;;;5.88;2.50;;;;;;;-141.50;100.00;63355.56;5053317;28;20110;-76
2022/05/06 11:22:20;;;;;;;6.45;2.65;;;;;;;-141.50;100.00;63355.56;5070969;28;20496;-76
2022/05/06 11:24:47;;;;;;;9.13;2.90;;;;;;;-141.50;100.00;63355.56;5064924;28;20078;-77
2022/05/06 11:27:18;;;;;;;5.50;2.63;;;;;;;-141.50;100.00;63355.56;5073169;28;20473;-76
2022/05/06 11:29:49;;;;;;;9.63;2.65;;;;;;;-141.50;100.00;63355.56;5090739;28;20048;-76
2022/05/06 11:32:17;;;;;;;6.47;2.40;;;;;;;-141.50;100.00;63355.56;5091762;28;20083;-78
2022/05/06 11:35:01;;;;;;;7.32;2.90;;;;;;;-141.50;100.00;63355.56;5087147;28;20155;-75
2022/05/06 11:37:33;;;;;;;7.60;2.92;;;;;;;-141.50;100.00;63355.56;5054551;28;20107;-77
2022/05/06 11:40:18;;;;;;;7.75;3.05;;;;;;;-141.50;100.00;63355.56;5076594;28;20079;-77
2022/05/06 11:42:45;;;;;;;6.32;2.63;;;;;;;-141.50;100.00;63355.56;5053157;28;20060;-75
2022/05/06 11:48:09;;;;;;;8.73;2.60;;;;;;;-141.50;100.00;63355.56;5080632;28;20032;-74
2022/05/06 11:50:37;;;;;;;6.93;2.72;;;;;;;-141.50;100.00;63355.56;5092340;28;20052;-75
2022/05/06 11:53:13;;;;;;;8.57;2.45;;;;;;;-141.50;100.00;63355.56;5088708;28;20079;-75
2022/05/06 11:55:42;;;;;;;10.27;3.08;;;;;;;-141.50;100.00;63355.56;5089920;28;20051;-70
2022/05/06 11:58:12;;;;;;;7.72;2.42;;;;;;;-141.50;100.00;63355.56;5082094;28;20083;-70